Time;durP1;ratioP1;P1;durP2;ratioP2;P2;SDS_P1;SDS_P2;PMS_P1;PMS_P2;Temp;Humidity;BMP_temperature;BMP_pressure;BME280_temperature;BME280_humidity;BME280_pressure;Samples;Min_cycle;Max_cycle;Signal;HPM_P1;HPM_P2
2021/12/28 00:01:01;;;;;;;9.13;6.40;;;12.80;52.30;;;;;;5028212;28;20460;-80
2021/12/28 00:03:29;;;;;;;9.90;6.20;;;12.90;52.40;;;;;;5021863;28;20499;-80
2021/12/28 00:06:00;;;;;;;11.57;7.50;;;12.90;52.40;;;;;;5019357;28;20464;-81
2021/12/28 00:08:28;;;;;;;10.70;6.97;;;12.90;52.30;;;;;;5020558;28;20476;-80
2021/12/28 00:10:56;;;;;;;10.63;6.90;;;12.90;52.30;;;;;;5022725;28;20471;-80
2021/12/28 00:13:24;;;;;;;9.10;6.90;;;12.90;52.30;;;;;;5025837;28;21003;-81
2021/12/28 00:16:13;;;;;;;10.63;6.60;;;12.90;52.30;;;;;;5020093;28;20444;-81
2021/12/28 00:18:41;;;;;;;9.50;6.70;;;12.90;52.20;;;;;;5026861;28;20465;-81
2021/12/28 00:21:10;;;;;;;10.23;6.90;;;12.90;52.20;;;;;;5022235;28;20517;-80
2021/12/28 00:23:39;;;;;;;8.40;7.03;;;12.90;52.30;;;;;;5021561;28;20469;-80
2021/12/28 00:26:09;;;;;;;9.67;6.20;;;12.90;52.30;;;;;;5025762;28;20448;-81
2021/12/28 00:28:36;;;;;;;9.50;6.70;;;12.90;52.30;;;;;;5034962;28;20439;-81
2021/12/28 00:31:04;;;;;;;11.60;6.67;;;12.90;52.30;;;;;;5016536;28;20539;-80
2021/12/28 00:33:32;;;;;;;9.97;7.20;;;12.90;52.30;;;;;;5026694;28;20558;-80
2021/12/28 00:36:00;;;;;;;11.07;6.90;;;12.90;52.30;;;;;;5033223;28;20447;-81
2021/12/28 00:38:29;;;;;;;10.37;6.37;;;12.90;52.30;;;;;;5037453;28;20546;-81
2021/12/28 00:40:59;;;;;;;11.47;7.10;;;12.90;52.30;;;;;;5032680;28;20468;-81
2021/12/28 00:43:28;;;;;;;9.20;6.57;;;12.90;52.20;;;;;;5026034;28;20467;-80
2021/12/28 00:45:56;;;;;;;12.30;7.67;;;13.00;52.50;;;;;;5029172;28;20435;-80
2021/12/28 00:48:24;;;;;;;8.30;6.07;;;13.00;52.40;;;;;;5026881;28;20458;-81
2021/12/28 00:50:53;;;;;;;8.83;6.40;;;13.00;52.40;;;;;;5026169;28;20467;-81
2021/12/28 00:53:21;;;;;;;8.20;6.53;;;12.90;52.30;;;;;;5030648;28;20472;-81
2021/12/28 00:55:51;;;;;;;9.30;7.07;;;13.00;52.40;;;;;;5026311;28;20531;-81
2021/12/28 00:58:18;;;;;;;8.87;6.37;;;13.00;52.30;;;;;;5026740;28;20503;-81
2021/12/28 01:00:46;;;;;;;7.77;5.90;;;13.00;52.40;;;;;;5026094;28;20456;-82
2021/12/28 01:03:15;;;;;;;7.07;6.10;;;13.00;52.30;;;;;;5025804;27;20443;-84
2021/12/28 01:05:43;;;;;;;8.57;6.37;;;13.00;52.40;;;;;;5028529;28;20564;-81
2021/12/28 01:08:12;;;;;;;10.57;6.97;;;13.00;52.40;;;;;;5024489;27;20534;-82
2021/12/28 01:10:43;;;;;;;8.90;6.50;;;13.00;52.40;;;;;;5026720;28;20491;-82
2021/12/28 01:13:12;;;;;;;9.20;6.80;;;13.00;52.40;;;;;;5029753;27;20444;-81
2021/12/28 01:15:40;;;;;;;7.80;5.90;;;13.10;52.40;;;;;;5030216;28;20483;-81
2021/12/28 01:18:09;;;;;;;8.30;6.07;;;13.10;52.40;;;;;;5030060;28;20459;-81
2021/12/28 01:20:37;;;;;;;9.33;6.30;;;13.10;52.30;;;;;;5032376;28;20499;-81
2021/12/28 01:23:06;;;;;;;11.43;6.30;;;13.10;52.40;;;;;;5030718;28;20476;-81
2021/12/28 01:25:34;;;;;;;7.17;5.47;;;13.10;52.40;;;;;;5035035;28;20491;-81
2021/12/28 01:28:03;;;;;;;8.73;6.10;;;13.10;52.30;;;;;;5033262;28;20433;-81
2021/12/28 01:30:32;;;;;;;7.80;6.10;;;13.10;52.40;;;;;;5033107;28;20435;-81
2021/12/28 01:33:01;;;;;;;10.40;7.00;;;13.10;52.30;;;;;;5033719;28;20521;-81
2021/12/28 01:35:29;;;;;;;7.10;6.07;;;13.20;52.50;;;;;;5031699;28;20481;-81
2021/12/28 01:37:58;;;;;;;7.80;6.20;;;13.20;52.40;;;;;;5032049;28;20497;-81
2021/12/28 01:40:26;;;;;;;6.23;5.60;;;13.20;52.30;;;;;;5031247;27;20897;-81
2021/12/28 01:42:56;;;;;;;8.60;6.30;;;13.20;52.30;;;;;;5033712;28;20436;-81
2021/12/28 01:45:33;;;;;;;8.40;6.40;;;13.20;52.20;;;;;;5021864;28;20455;-81
2021/12/28 01:48:02;;;;;;;6.63;5.93;;;13.20;52.30;;;;;;5022740;28;20535;-81
2021/12/28 01:50:30;;;;;;;7.33;5.63;;;13.30;52.30;;;;;;5022495;28;20463;-81
2021/12/28 01:52:58;;;;;;;9.70;6.10;;;13.20;52.30;;;;;;5022144;28;20480;-81
2021/12/28 01:55:26;;;;;;;7.13;5.60;;;13.20;52.20;;;;;;5022064;28;20480;-81
2021/12/28 01:57:54;;;;;;;8.70;6.67;;;13.30;52.30;;;;;;5033878;28;20457;-81
2021/12/28 02:00:24;;;;;;;8.30;6.30;;;13.30;52.30;;;;;;5033594;28;20429;-81
2021/12/28 02:02:53;;;;;;;9.10;6.07;;;13.30;52.20;;;;;;5025994;28;20485;-81
2021/12/28 02:05:22;;;;;;;8.60;5.90;;;13.30;52.20;;;;;;5022586;28;20465;-81
2021/12/28 02:07:50;;;;;;;7.53;6.20;;;13.30;52.20;;;;;;5022682;28;20468;-81
2021/12/28 02:10:18;;;;;;;9.73;5.50;;;13.40;52.20;;;;;;5023420;28;20470;-81
2021/12/28 02:12:46;;;;;;;6.60;5.53;;;13.30;52.20;;;;;;5026749;28;20549;-81
2021/12/28 02:15:15;;;;;;;8.60;5.73;;;13.30;52.20;;;;;;5041897;28;20443;-81
2021/12/28 02:17:43;;;;;;;9.20;6.37;;;13.40;52.20;;;;;;5037456;28;20523;-81
2021/12/28 02:20:15;;;;;;;8.23;5.57;;;13.40;52.20;;;;;;5041962;28;20430;-81
2021/12/28 02:22:43;;;;;;;7.10;5.60;;;13.40;52.20;;;;;;5041148;28;20966;-81
2021/12/28 02:25:11;;;;;;;8.80;6.20;;;13.40;52.20;;;;;;5041609;28;20487;-81
2021/12/28 02:27:40;;;;;;;8.60;6.37;;;13.40;52.30;;;;;;5040816;28;20458;-81
2021/12/28 02:30:09;;;;;;;7.70;5.80;;;13.40;52.30;;;;;;5037826;28;20885;-81
2021/12/28 02:32:38;;;;;;;6.47;5.80;;;13.40;52.20;;;;;;5040658;28;20475;-81
2021/12/28 02:35:07;;;;;;;8.30;6.17;;;13.40;52.20;;;;;;5041614;28;20455;-81
2021/12/28 02:37:36;;;;;;;8.73;6.20;;;13.40;52.10;;;;;;5041323;28;20436;-81
2021/12/28 02:40:06;;;;;;;8.00;6.10;;;13.50;52.20;;;;;;5041260;28;20431;-81
2021/12/28 02:42:33;;;;;;;8.77;6.00;;;13.40;52.20;;;;;;5041201;28;20452;-81
2021/12/28 02:45:07;;;;;;;9.47;6.50;;;13.50;52.30;;;;;;5041711;28;20448;-81
2021/12/28 02:47:35;;;;;;;7.70;5.97;;;13.50;52.20;;;;;;5038095;28;20479;-81
2021/12/28 02:50:04;;;;;;;8.53;5.87;;;13.50;52.10;;;;;;5041550;28;20439;-81
2021/12/28 02:52:34;;;;;;;8.30;6.27;;;13.50;52.20;;;;;;5041928;28;20506;-81
2021/12/28 02:55:04;;;;;;;9.17;6.80;;;13.50;52.20;;;;;;5041477;28;20479;-81
2021/12/28 02:57:31;;;;;;;7.17;5.90;;;13.50;52.20;;;;;;5041633;28;20475;-81
2021/12/28 02:59:59;;;;;;;7.63;5.67;;;13.40;52.20;;;;;;5041580;28;20443;-81
2021/12/28 03:02:27;;;;;;;6.97;5.80;;;13.50;52.40;;;;;;5039502;27;20499;-81
2021/12/28 03:04:55;;;;;;;6.90;5.77;;;13.50;52.30;;;;;;5040877;28;20467;-80
2021/12/28 03:07:24;;;;;;;7.43;5.70;;;13.50;52.30;;;;;;5030827;28;20473;-81
2021/12/28 03:09:52;;;;;;;6.97;5.57;;;13.50;52.30;;;;;;5037828;28;20440;-80
2021/12/28 03:12:21;;;;;;;7.03;5.77;;;13.50;53.00;;;;;;5036808;28;20486;-81
2021/12/28 03:14:49;;;;;;;6.80;5.80;;;13.50;52.30;;;;;;5037548;28;20456;-80
2021/12/28 03:17:17;;;;;;;10.10;5.90;;;13.50;52.30;;;;;;5035387;28;20539;-81
2021/12/28 03:19:45;;;;;;;6.97;5.67;;;13.50;52.30;;;;;;5028148;28;20459;-81
2021/12/28 03:22:13;;;;;;;7.37;6.00;;;13.50;52.40;;;;;;5035368;28;20542;-81
2021/12/28 03:24:42;;;;;;;7.30;5.60;;;13.50;52.40;;;;;;5039068;28;20459;-81
2021/12/28 03:27:10;;;;;;;8.50;5.87;;;13.50;52.30;;;;;;5028640;28;20452;-81
2021/12/28 03:29:39;;;;;;;7.13;5.83;;;13.50;52.40;;;;;;5025517;28;20885;-81
2021/12/28 03:32:08;;;;;;;7.73;6.00;;;13.60;52.40;;;;;;5026668;27;20528;-81
2021/12/28 03:34:36;;;;;;;7.80;5.93;;;13.50;52.30;;;;;;5034783;28;20532;-81
2021/12/28 03:37:04;;;;;;;9.00;5.90;;;13.60;52.40;;;;;;5031010;28;20476;-81
2021/12/28 03:39:32;;;;;;;8.20;5.90;;;13.60;52.50;;;;;;5039456;27;20455;-81
2021/12/28 03:42:00;;;;;;;6.40;5.63;;;13.50;52.40;;;;;;5039134;28;20800;-81
2021/12/28 03:44:28;;;;;;;5.87;4.90;;;13.60;52.50;;;;;;5038703;28;20502;-81
2021/12/28 03:46:57;;;;;;;5.63;5.03;;;13.50;52.40;;;;;;5039315;28;20468;-81
2021/12/28 03:49:26;;;;;;;6.47;5.57;;;13.60;52.50;;;;;;5038863;28;20467;-81
2021/12/28 03:51:55;;;;;;;8.50;5.60;;;13.60;52.50;;;;;;5036286;28;20475;-80
2021/12/28 03:54:24;;;;;;;6.87;5.50;;;13.60;52.40;;;;;;5038565;28;20445;-81
2021/12/28 03:56:53;;;;;;;6.10;5.43;;;13.60;52.40;;;;;;5039418;28;20515;-81
2021/12/28 03:59:21;;;;;;;6.43;5.73;;;13.60;52.40;;;;;;5041624;28;20428;-80
2021/12/28 04:01:50;;;;;;;8.20;5.60;;;13.60;52.40;;;;;;5036155;28;20512;-80
2021/12/28 04:04:19;;;;;;;6.60;5.43;;;13.60;52.40;;;;;;5040977;28;20467;-80
2021/12/28 04:06:47;;;;;;;7.73;5.63;;;13.60;52.40;;;;;;5044560;28;20446;-81
2021/12/28 04:09:22;;;;;;;8.63;6.03;;;13.60;52.50;;;;;;5038260;28;20475;-81
2021/12/28 04:11:50;;;;;;;6.90;5.37;;;13.60;52.40;;;;;;5044101;28;20443;-80
2021/12/28 04:14:18;;;;;;;5.90;4.93;;;13.70;52.60;;;;;;5044120;28;20507;-80
2021/12/28 04:16:47;;;;;;;7.10;5.20;;;13.70;52.50;;;;;;5044014;28;20438;-81
2021/12/28 04:19:15;;;;;;;7.20;5.30;;;13.70;52.40;;;;;;5044311;27;20455;-80
2021/12/28 04:21:45;;;;;;;6.90;5.40;;;13.70;52.40;;;;;;5043922;28;20459;-80
2021/12/28 04:24:13;;;;;;;6.10;5.27;;;13.70;52.40;;;;;;5042686;28;20635;-80
2021/12/28 04:26:41;;;;;;;6.13;5.23;;;13.70;52.40;;;;;;5036533;28;20451;-80
2021/12/28 04:29:09;;;;;;;7.00;5.33;;;13.70;52.40;;;;;;5024858;28;20520;-80
2021/12/28 04:31:37;;;;;;;12.97;5.30;;;13.70;52.50;;;;;;5023893;28;20914;-80
2021/12/28 04:34:05;;;;;;;6.10;5.40;;;13.70;52.50;;;;;;5024081;28;20480;-80
2021/12/28 04:36:33;;;;;;;6.80;5.80;;;13.70;52.40;;;;;;5024940;28;20448;-80
2021/12/28 04:39:03;;;;;;;7.07;5.70;;;13.70;52.60;;;;;;5023390;28;21015;-80
2021/12/28 04:41:30;;;;;;;5.70;4.93;;;13.80;52.50;;;;;;5024634;28;20449;-80
2021/12/28 04:44:00;;;;;;;7.20;5.47;;;13.80;52.60;;;;;;5042176;28;20459;-80
2021/12/28 04:46:28;;;;;;;7.50;5.90;;;13.80;52.50;;;;;;5044211;28;20436;-81
2021/12/28 04:48:57;;;;;;;5.73;5.00;;;13.80;52.50;;;;;;5044006;27;20443;-80
2021/12/28 04:51:25;;;;;;;6.00;5.37;;;13.80;52.50;;;;;;5043498;27;20455;-80
2021/12/28 04:53:54;;;;;;;7.87;5.33;;;13.80;52.50;;;;;;5043120;28;20471;-80
2021/12/28 04:56:24;;;;;;;5.93;5.20;;;13.80;52.50;;;;;;5043081;28;20463;-80
2021/12/28 04:58:52;;;;;;;6.73;5.70;;;13.80;52.60;;;;;;5039960;28;20483;-80
2021/12/28 05:01:20;;;;;;;7.60;5.83;;;13.80;52.50;;;;;;5036697;28;20456;-80
2021/12/28 05:03:48;;;;;;;5.23;4.73;;;13.80;52.50;;;;;;5040209;28;20985;-80
2021/12/28 05:06:16;;;;;;;5.13;4.63;;;13.80;52.50;;;;;;5039322;28;20459;-80
2021/12/28 05:08:44;;;;;;;6.97;5.40;;;13.80;52.60;;;;;;5042638;28;20440;-80
2021/12/28 05:11:14;;;;;;;5.93;5.07;;;13.80;52.60;;;;;;5041398;28;20553;-80
2021/12/28 05:13:44;;;;;;;6.17;5.10;;;13.80;52.60;;;;;;5044163;28;20467;-80
2021/12/28 05:16:15;;;;;;;6.37;5.67;;;13.80;52.70;;;;;;5038096;28;20456;-80
2021/12/28 05:18:43;;;;;;;6.73;5.20;;;13.80;52.70;;;;;;5043165;28;20432;-80
2021/12/28 05:21:11;;;;;;;6.10;4.80;;;13.80;52.60;;;;;;5040824;28;20456;-80
2021/12/28 05:23:39;;;;;;;6.30;5.20;;;13.80;52.60;;;;;;5043221;28;20456;-80
2021/12/28 05:26:07;;;;;;;6.70;5.50;;;13.80;52.80;;;;;;5043671;28;20443;-80
2021/12/28 05:28:35;;;;;;;5.47;4.90;;;13.80;52.80;;;;;;5034824;27;20535;-80
2021/12/28 05:31:04;;;;;;;10.77;5.17;;;13.80;52.80;;;;;;5043272;28;20477;-80
2021/12/28 05:33:32;;;;;;;7.00;5.27;;;13.80;52.80;;;;;;5036437;28;20493;-80
2021/12/28 05:36:00;;;;;;;5.20;4.70;;;13.80;52.70;;;;;;5042125;27;20471;-80
2021/12/28 05:38:28;;;;;;;5.40;4.90;;;13.90;52.70;;;;;;5043483;28;20448;-80
2021/12/28 05:40:56;;;;;;;5.27;4.70;;;13.80;52.70;;;;;;5043332;28;20459;-80
2021/12/28 05:43:24;;;;;;;5.90;5.30;;;13.80;52.90;;;;;;5044025;28;20428;-81
2021/12/28 05:45:52;;;;;;;6.30;5.00;;;13.90;52.80;;;;;;5042794;27;20561;-81
2021/12/28 05:48:22;;;;;;;5.80;5.13;;;13.90;52.80;;;;;;5041912;28;20443;-81
2021/12/28 05:50:51;;;;;;;5.03;4.53;;;13.90;52.80;;;;;;5038803;28;20486;-80
2021/12/28 05:53:19;;;;;;;5.67;4.90;;;13.90;52.80;;;;;;5042185;28;20471;-80
2021/12/28 05:55:47;;;;;;;5.83;5.20;;;13.90;52.90;;;;;;5040955;28;20470;-80
2021/12/28 05:58:15;;;;;;;5.50;4.90;;;13.90;52.90;;;;;;5041557;28;20443;-80
2021/12/28 06:00:43;;;;;;;5.60;5.07;;;13.90;52.70;;;;;;5041714;28;20507;-80
2021/12/28 06:03:11;;;;;;;5.87;4.40;;;13.80;52.80;;;;;;5041516;27;20436;-80
2021/12/28 06:05:40;;;;;;;5.00;4.50;;;13.90;52.80;;;;;;5041365;28;20458;-80
2021/12/28 06:08:09;;;;;;;5.73;4.80;;;13.80;52.80;;;;;;5033504;27;20500;-80
2021/12/28 06:10:57;;;;;;;5.93;5.33;;;13.80;52.80;;;;;;5041333;28;20438;-80
2021/12/28 06:13:25;;;;;;;5.40;4.67;;;13.80;52.90;;;;;;5040747;28;20428;-80
2021/12/28 06:15:53;;;;;;;5.80;4.80;;;13.80;52.90;;;;;;5040643;27;20447;-80
2021/12/28 06:18:21;;;;;;;5.93;5.07;;;13.80;52.90;;;;;;5041080;27;20532;-80
2021/12/28 06:20:51;;;;;;;5.47;4.90;;;13.80;53.00;;;;;;5040532;28;20470;-80
2021/12/28 06:23:19;;;;;;;6.63;4.77;;;13.80;52.90;;;;;;5038959;28;20475;-80
2021/12/28 06:25:47;;;;;;;6.67;4.73;;;13.80;52.90;;;;;;5032935;27;20483;-80
2021/12/28 06:28:15;;;;;;;5.53;4.90;;;13.80;53.00;;;;;;5040108;28;20435;-80
2021/12/28 06:30:43;;;;;;;5.93;4.63;;;13.80;53.00;;;;;;5040786;28;20428;-80
2021/12/28 06:33:11;;;;;;;5.03;4.50;;;13.80;53.00;;;;;;5040759;27;20447;-80
2021/12/28 06:35:39;;;;;;;5.50;5.00;;;13.80;53.10;;;;;;5040297;28;20495;-80
2021/12/28 06:38:08;;;;;;;5.80;4.80;;;13.70;53.00;;;;;;5041069;28;20504;-80
2021/12/28 06:40:36;;;;;;;6.10;4.30;;;13.70;53.10;;;;;;5040427;27;20452;-80
2021/12/28 06:43:04;;;;;;;4.67;4.17;;;13.70;53.10;;;;;;5035247;28;20539;-80
2021/12/28 06:45:32;;;;;;;4.87;4.47;;;13.70;53.00;;;;;;5040109;28;20475;-80
2021/12/28 06:48:00;;;;;;;4.87;4.37;;;13.70;53.20;;;;;;5040338;27;20440;-80
2021/12/28 06:50:28;;;;;;;5.07;4.37;;;13.70;53.10;;;;;;5040490;27;20472;-80
2021/12/28 06:52:56;;;;;;;5.97;4.40;;;13.70;53.00;;;;;;5039421;27;20965;-80
2021/12/28 06:55:25;;;;;;;4.93;4.43;;;13.70;53.10;;;;;;5039887;28;20507;-79
2021/12/28 06:57:53;;;;;;;5.97;5.00;;;13.80;53.10;;;;;;5038244;27;20471;-79
2021/12/28 07:00:22;;;;;;;4.87;4.37;;;13.70;53.10;;;;;;5032807;28;20444;-79
2021/12/28 07:02:50;;;;;;;5.93;4.13;;;13.80;53.20;;;;;;5038043;28;20483;-80
2021/12/28 07:05:18;;;;;;;5.43;4.63;;;13.80;53.20;;;;;;5039153;28;20513;-80
2021/12/28 07:07:46;;;;;;;4.97;4.47;;;13.80;53.20;;;;;;5040077;28;20452;-80
2021/12/28 07:10:14;;;;;;;5.70;4.43;;;13.80;53.20;;;;;;5039985;28;20530;-79
2021/12/28 07:12:44;;;;;;;4.30;3.90;;;13.80;53.20;;;;;;5040460;28;20462;-79
2021/12/28 07:15:12;;;;;;;5.43;4.70;;;13.80;53.20;;;;;;5040204;28;20539;-79
2021/12/28 07:17:41;;;;;;;4.20;3.90;;;13.80;53.20;;;;;;5034083;28;20551;-80
2021/12/28 07:20:09;;;;;;;5.13;4.63;;;13.80;53.20;;;;;;5021532;28;20452;-80
2021/12/28 07:22:38;;;;;;;5.13;4.63;;;13.80;53.20;;;;;;5020218;28;20428;-80
2021/12/28 07:25:06;;;;;;;5.03;4.53;;;13.80;53.20;;;;;;5024086;28;20494;-80
2021/12/28 07:27:35;;;;;;;5.80;4.60;;;13.80;53.10;;;;;;5040572;28;20439;-80
2021/12/28 07:30:06;;;;;;;4.83;4.43;;;13.90;53.20;;;;;;5040781;28;20464;-80
2021/12/28 07:32:34;;;;;;;5.87;5.10;;;13.80;53.10;;;;;;5038955;28;20428;-80
2021/12/28 07:35:02;;;;;;;6.03;4.67;;;13.80;53.10;;;;;;5033899;28;20482;-79
2021/12/28 07:37:30;;;;;;;5.40;4.73;;;13.80;53.10;;;;;;5040340;27;20448;-79
2021/12/28 07:39:58;;;;;;;4.80;4.27;;;13.80;53.10;;;;;;5040455;27;20482;-79
2021/12/28 07:42:26;;;;;;;5.13;4.67;;;13.80;53.10;;;;;;5039819;27;20478;-79
2021/12/28 07:44:54;;;;;;;4.83;4.43;;;13.90;53.10;;;;;;5040693;28;20487;-79
2021/12/28 07:47:23;;;;;;;5.60;4.10;;;13.80;53.00;;;;;;5041012;28;20454;-79
2021/12/28 07:49:51;;;;;;;6.03;4.37;;;13.80;53.00;;;;;;5039799;28;20436;-79
2021/12/28 07:52:19;;;;;;;5.20;4.23;;;13.80;53.10;;;;;;5033728;27;21027;-79
2021/12/28 07:54:49;;;;;;;4.83;4.30;;;13.90;53.20;;;;;;5039658;28;20467;-79
2021/12/28 07:57:17;;;;;;;7.03;5.43;;;13.90;53.20;;;;;;5039781;27;20504;-80
2021/12/28 07:59:45;;;;;;;6.30;5.40;;;13.90;53.20;;;;;;5040107;28;20427;-79
2021/12/28 08:02:13;;;;;;;5.10;4.30;;;13.90;53.20;;;;;;5041036;28;20800;-79
2021/12/28 08:04:42;;;;;;;5.40;4.77;;;13.90;53.10;;;;;;5039739;28;20456;-79
2021/12/28 08:07:10;;;;;;;5.03;4.53;;;13.90;53.20;;;;;;5038803;27;20467;-79
2021/12/28 08:09:38;;;;;;;4.40;4.00;;;13.90;53.20;;;;;;5032105;28;20557;-80
2021/12/28 08:12:07;;;;;;;5.07;4.27;;;13.90;53.20;;;;;;5038513;28;20459;-79
2021/12/28 08:14:36;;;;;;;5.50;4.20;;;13.90;53.10;;;;;;5039020;28;20499;-79
2021/12/28 08:17:04;;;;;;;4.90;4.07;;;13.90;53.10;;;;;;5039336;27;20471;-80
2021/12/28 08:19:32;;;;;;;4.60;4.20;;;13.90;53.10;;;;;;5039416;28;20436;-80
2021/12/28 08:22:02;;;;;;;4.33;4.00;;;13.90;53.70;;;;;;5039833;28;20432;-79
2021/12/28 08:24:30;;;;;;;4.90;4.50;;;14.00;53.20;;;;;;5038594;28;20958;-79
2021/12/28 08:26:58;;;;;;;4.73;4.33;;;14.00;53.10;;;;;;5036358;28;20444;-80
2021/12/28 08:29:26;;;;;;;6.03;4.43;;;14.00;53.10;;;;;;5040187;28;20428;-79
2021/12/28 08:31:54;;;;;;;5.70;4.77;;;14.00;53.20;;;;;;5039144;28;20459;-79
2021/12/28 08:34:22;;;;;;;4.37;3.97;;;14.10;53.20;;;;;;5039205;28;20477;-79
2021/12/28 08:36:49;;;;;;;5.47;4.23;;;14.10;53.00;;;;;;5040087;28;20475;-80
2021/12/28 08:39:19;;;;;;;6.13;4.37;;;14.10;53.00;;;;;;5039196;28;20471;-79
2021/12/28 08:41:48;;;;;;;5.23;4.37;;;14.20;53.00;;;;;;5036857;28;20538;-79
2021/12/28 08:44:15;;;;;;;4.93;4.40;;;14.10;53.00;;;;;;5026321;28;20475;-79
2021/12/28 08:46:45;;;;;;;4.60;4.20;;;14.20;53.00;;;;;;5042151;28;20459;-79
2021/12/28 08:49:15;;;;;;;4.83;4.20;;;14.20;52.90;;;;;;5042937;28;20446;-80
2021/12/28 08:51:44;;;;;;;5.00;4.50;;;14.20;53.00;;;;;;5042591;28;20470;-80
2021/12/28 08:54:11;;;;;;;4.90;4.33;;;14.20;52.90;;;;;;5042951;28;20483;-80
2021/12/28 08:56:41;;;;;;;4.50;4.10;;;14.30;52.90;;;;;;5042258;28;20467;-80
2021/12/28 08:59:09;;;;;;;4.50;4.07;;;14.30;52.90;;;;;;5042847;28;20538;-80
2021/12/28 09:01:36;;;;;;;4.23;3.93;;;14.40;52.80;;;;;;5034015;28;20491;-80
2021/12/28 09:04:05;;;;;;;4.57;4.17;;;14.40;52.80;;;;;;5043072;28;20463;-80
2021/12/28 09:06:33;;;;;;;4.77;4.37;;;14.40;52.70;;;;;;5042874;28;20436;-80
2021/12/28 09:09:01;;;;;;;4.90;4.40;;;14.40;52.60;;;;;;5042749;27;20479;-80
2021/12/28 09:11:29;;;;;;;6.53;4.37;;;14.40;52.60;;;;;;5043067;27;20531;-80
2021/12/28 09:13:58;;;;;;;5.20;4.60;;;14.50;52.80;;;;;;5042581;28;20451;-80
2021/12/28 09:16:29;;;;;;;6.13;4.40;;;14.50;52.70;;;;;;5041241;28;20463;-80
2021/12/28 09:18:57;;;;;;;4.67;4.27;;;14.50;52.80;;;;;;5041415;28;20451;-79
2021/12/28 09:21:25;;;;;;;6.07;4.50;;;14.50;52.70;;;;;;5043158;28;20442;-80
2021/12/28 09:23:53;;;;;;;4.47;3.73;;;14.60;52.70;;;;;;5043494;28;20448;-80
2021/12/28 09:26:41;;;;;;;6.40;4.23;;;14.70;52.80;;;;;;5043020;27;20442;-80
2021/12/28 09:29:11;;;;;;;4.87;4.47;;;14.80;52.80;;;;;;5042971;27;20538;-80
2021/12/28 09:31:38;;;;;;;4.90;4.23;;;14.90;52.70;;;;;;5042763;28;20455;-80
2021/12/28 09:34:06;;;;;;;5.00;4.20;;;15.00;52.70;;;;;;5036053;28;20475;-80
2021/12/28 09:36:54;;;;;;;4.67;4.27;;;15.10;52.50;;;;;;5042433;27;20470;-80
2021/12/28 09:39:26;;;;;;;4.47;4.07;;;15.10;52.40;;;;;;5042754;28;20435;-80
2021/12/28 09:41:55;;;;;;;5.20;4.70;;;15.20;52.30;;;;;;5040239;28;20446;-79
2021/12/28 09:44:25;;;;;;;4.73;4.27;;;15.20;52.30;;;;;;5038220;28;20483;-79
2021/12/28 09:46:53;;;;;;;4.50;4.10;;;15.20;52.20;;;;;;5033132;28;20444;-79
2021/12/28 09:49:21;;;;;;;4.93;4.53;;;15.20;52.20;;;;;;5034856;28;20973;-79
2021/12/28 09:51:49;;;;;;;3.80;3.60;;;15.20;52.20;;;;;;5027977;28;20447;-79
2021/12/28 09:54:17;;;;;;;5.77;4.33;;;15.20;52.20;;;;;;5037821;27;20532;-79
2021/12/28 09:56:45;;;;;;;5.73;4.30;;;15.20;52.10;;;;;;5036251;27;20475;-79
2021/12/28 09:59:13;;;;;;;4.80;4.40;;;15.30;52.20;;;;;;5036999;27;20444;-79
2021/12/28 10:01:42;;;;;;;4.50;4.10;;;15.30;52.20;;;;;;5036844;28;20476;-79
2021/12/28 10:04:10;;;;;;;4.60;4.17;;;15.40;52.30;;;;;;5037681;27;20502;-79
2021/12/28 10:06:38;;;;;;;4.97;4.47;;;15.50;52.30;;;;;;5027516;28;20507;-79
2021/12/28 10:09:08;;;;;;;4.10;3.80;;;15.50;52.20;;;;;;5037056;28;20432;-79
2021/12/28 10:11:36;;;;;;;5.60;4.30;;;15.70;52.50;;;;;;5036852;28;20431;-80
2021/12/28 10:14:12;;;;;;;4.70;3.97;;;15.90;52.40;;;;;;5036993;28;20460;-80
2021/12/28 10:16:47;;;;;;;5.00;4.23;;;16.10;52.20;;;;;;5035283;28;20549;-80
2021/12/28 10:19:32;;;;;;;4.73;4.33;;;16.20;52.00;;;;;;5037097;28;20490;-80
2021/12/28 10:22:22;;;;;;;4.67;4.13;;;16.30;52.50;;;;;;5033607;28;20483;-80
2021/12/28 10:24:50;;;;;;;3.83;3.53;;;16.40;51.90;;;;;;5033682;28;20482;-80
2021/12/28 10:27:19;;;;;;;7.07;4.23;;;16.60;51.90;;;;;;5037258;28;20436;-80
2021/12/28 10:29:47;;;;;;;4.50;4.03;;;16.70;51.90;;;;;;5038011;28;20463;-80
2021/12/28 10:32:22;;;;;;;4.50;4.13;;;16.90;51.80;;;;;;5037269;27;20491;-80
2021/12/28 10:34:50;;;;;;;4.50;4.10;;;17.00;51.80;;;;;;5036743;28;20455;-78
2021/12/28 10:37:21;;;;;;;5.60;4.50;;;17.20;51.90;;;;;;5036383;28;20492;-78
2021/12/28 10:39:51;;;;;;;5.83;4.30;;;17.30;51.80;;;;;;5026789;28;20507;-79
2021/12/28 10:42:55;;;;;;;4.33;3.93;;;17.50;51.80;;;;;;5035034;28;20809;-78
2021/12/28 10:45:24;;;;;;;5.03;3.83;;;17.80;51.70;;;;;;5036672;27;20536;-79
2021/12/28 10:47:53;;;;;;;4.43;4.03;;;17.80;51.40;;;;;;5036131;28;20463;-78
2021/12/28 10:50:27;;;;;;;4.70;4.20;;;17.80;51.20;;;;;;5036114;28;20463;-79
2021/12/28 10:53:03;;;;;;;4.40;4.00;;;17.80;51.20;;;;;;5034674;28;20965;-79
2021/12/28 10:55:32;;;;;;;5.80;4.27;;;17.70;51.20;;;;;;5026096;27;21002;-79
2021/12/28 10:57:59;;;;;;;5.73;4.20;;;17.70;51.30;;;;;;5033061;28;20555;-79
2021/12/28 11:00:30;;;;;;;4.30;3.67;;;17.60;51.40;;;;;;5035301;28;20437;-79
2021/12/28 11:03:30;;;;;;;4.73;4.33;;;17.50;51.40;;;;;;5031689;28;20520;-79
2021/12/28 11:06:00;;;;;;;5.80;4.30;;;17.50;51.50;;;;;;5034842;28;20463;-79
2021/12/28 11:08:28;;;;;;;4.57;4.17;;;17.40;51.60;;;;;;5035337;28;20458;-79
2021/12/28 11:10:59;;;;;;;4.87;4.17;;;17.40;51.70;;;;;;5029081;28;20535;-79
2021/12/28 11:13:29;;;;;;;4.93;4.40;;;17.30;51.70;;;;;;5022145;28;20527;-79
2021/12/28 11:15:58;;;;;;;5.33;4.37;;;17.20;51.80;;;;;;5035218;28;20527;-79
2021/12/28 11:18:30;;;;;;;4.47;4.07;;;17.20;52.00;;;;;;5036208;28;20480;-79
2021/12/28 11:20:59;;;;;;;4.03;3.57;;;17.20;52.00;;;;;;5036183;28;20527;-79
2021/12/28 11:23:29;;;;;;;5.20;4.50;;;17.20;52.00;;;;;;5036066;28;20472;-79
2021/12/28 11:26:07;;;;;;;6.77;4.80;;;17.10;52.00;;;;;;5037902;28;20472;-79
2021/12/28 11:28:40;;;;;;;5.70;4.13;;;17.10;52.00;;;;;;5028590;28;20501;-79
2021/12/28 11:31:11;;;;;;;5.30;4.37;;;17.10;52.00;;;;;;5027684;28;20475;-79
2021/12/28 11:33:59;;;;;;;8.40;4.30;;;17.00;51.90;;;;;;5035719;28;20467;-79
2021/12/28 11:36:30;;;;;;;5.60;4.47;;;17.00;52.10;;;;;;5035745;28;20543;-79
2021/12/28 11:38:59;;;;;;;4.90;4.00;;;16.90;52.10;;;;;;5036198;28;20498;-79
2021/12/28 11:41:27;;;;;;;5.97;4.23;;;16.90;52.20;;;;;;5035929;28;20444;-79
2021/12/28 11:43:55;;;;;;;5.70;4.50;;;16.90;52.30;;;;;;5035443;28;20986;-79
2021/12/28 11:46:24;;;;;;;6.30;4.20;;;16.80;52.30;;;;;;5027875;28;20452;-79
2021/12/28 11:48:52;;;;;;;6.37;3.83;;;16.80;52.20;;;;;;5032951;28;20467;-79
2021/12/28 11:51:22;;;;;;;4.77;3.77;;;16.80;52.20;;;;;;5035453;28;20482;-79
2021/12/28 11:53:50;;;;;;;4.87;3.77;;;16.80;52.20;;;;;;5035466;28;20527;-79
2021/12/28 11:56:22;;;;;;;3.67;3.37;;;16.80;52.30;;;;;;5035187;28;20436;-79
2021/12/28 11:58:51;;;;;;;6.00;4.40;;;16.70;52.20;;;;;;5035690;28;20796;-79
2021/12/28 12:01:49;;;;;;;5.23;4.33;;;16.70;52.20;;;;;;5036637;28;20958;-79
2021/12/28 12:04:55;;;;;;;5.27;3.50;;;16.70;52.40;;;;;;5029394;28;20459;-79
2021/12/28 12:07:30;;;;;;;4.30;3.90;;;16.60;52.40;;;;;;5035955;27;20462;-79
2021/12/28 12:10:31;;;;;;;6.43;3.53;;;16.60;52.50;;;;;;5035727;28;20430;-79
2021/12/28 12:13:27;;;;;;;5.60;4.10;;;16.60;52.60;;;;;;5031578;27;20522;-79
2021/12/28 12:15:56;;;;;;;4.87;3.83;;;16.50;52.40;;;;;;5036712;28;20515;-79
2021/12/28 12:18:28;;;;;;;5.43;3.83;;;16.50;52.60;;;;;;5036596;28;20491;-79
2021/12/28 12:20:58;;;;;;;4.13;3.73;;;16.50;52.60;;;;;;5033306;28;20970;-79
2021/12/28 12:23:41;;;;;;;4.27;3.83;;;16.50;52.60;;;;;;5039589;28;20484;-79
2021/12/28 12:26:11;;;;;;;4.10;3.70;;;16.50;52.60;;;;;;5039077;28;20436;-79
2021/12/28 12:28:47;;;;;;;6.20;4.07;;;16.50;52.60;;;;;;5040347;28;20420;-79
2021/12/28 12:31:24;;;;;;;3.87;3.57;;;16.50;52.60;;;;;;5031259;28;20428;-79
2021/12/28 12:33:53;;;;;;;6.10;4.20;;;16.60;52.70;;;;;;5029646;28;20460;-79
2021/12/28 12:36:24;;;;;;;3.60;3.30;;;16.60;52.60;;;;;;5027736;28;20539;-79
2021/12/28 12:38:54;;;;;;;4.80;3.70;;;16.50;52.50;;;;;;5033701;28;20472;-79
2021/12/28 12:41:24;;;;;;;4.20;3.30;;;16.60;52.70;;;;;;5028669;28;20445;-79
2021/12/28 12:43:54;;;;;;;5.53;3.70;;;16.60;52.60;;;;;;5030284;27;20490;-79
2021/12/28 12:46:30;;;;;;;4.10;3.70;;;16.60;52.60;;;;;;5029973;28;20452;-79
2021/12/28 12:49:12;;;;;;;3.60;3.30;;;16.60;52.60;;;;;;5030176;27;20478;-79
2021/12/28 12:51:45;;;;;;;4.27;3.60;;;16.60;52.60;;;;;;5029466;28;20490;-79
2021/12/28 12:54:19;;;;;;;3.90;3.50;;;16.60;52.60;;;;;;5026632;28;20470;-79
2021/12/28 12:57:12;;;;;;;5.70;3.77;;;16.60;52.60;;;;;;5030625;28;20501;-79
2021/12/28 12:59:45;;;;;;;3.67;3.37;;;16.60;52.70;;;;;;5026709;28;20451;-79